sensor_id;sensor_type;location;lat;lon;timestamp;pressure;altitude;pressure_sealevel;temperature;humidity
14343;BME280;7255;53.596;9.960;2023-05-13T00:02:20;101947.97;;;12.29;nan
14343;BME280;7255;53.596;9.960;2023-05-13T00:04:47;101955.00;;;12.30;nan
14343;BME280;7255;53.596;9.960;2023-05-13T00:07:13;101941.75;;;12.22;nan
14343;BME280;7255;53.596;9.960;2023-05-13T00:09:39;101955.44;;;12.27;nan
14343;BME280;7255;53.596;9.960;2023-05-13T00:12:06;101935.50;;;12.15;nan
14343;BME280;7255;53.596;9.960;2023-05-13T00:14:33;101942.13;;;12.06;nan
14343;BME280;7255;53.596;9.960;2023-05-13T00:17:00;101945.03;;;12.04;nan
14343;BME280;7255;53.596;9.960;2023-05-13T00:19:28;101942.56;;;12.09;nan
14343;BME280;7255;53.596;9.960;2023-05-13T00:21:55;101935.94;;;12.19;nan
14343;BME280;7255;53.596;9.960;2023-05-13T00:24:22;101941.28;;;11.99;nan
14343;BME280;7255;53.596;9.960;2023-05-13T00:26:48;101939.22;;;12.01;nan
14343;BME280;7255;53.596;9.960;2023-05-13T00:29:14;101946.28;;;12.02;nan
14343;BME280;7255;53.596;9.960;2023-05-13T00:31:40;101936.72;;;11.92;nan
14343;BME280;7255;53.596;9.960;2023-05-13T00:34:08;101938.75;;;11.90;nan
14343;BME280;7255;53.596;9.960;2023-05-13T00:36:35;101939.25;;;12.07;nan
14343;BME280;7255;53.596;9.960;2023-05-13T00:39:01;101935.50;;;12.02;nan
14343;BME280;7255;53.596;9.960;2023-05-13T00:41:28;101941.31;;;12.05;nan
14343;BME280;7255;53.596;9.960;2023-05-13T00:43:55;101942.53;;;12.03;nan
14343;BME280;7255;53.596;9.960;2023-05-13T00:46:21;101938.75;;;11.90;nan
14343;BME280;7255;53.596;9.960;2023-05-13T00:48:48;101948.69;;;11.83;nan
14343;BME280;7255;53.596;9.960;2023-05-13T00:51:15;101941.63;;;11.82;nan
14343;BME280;7255;53.596;9.960;2023-05-13T00:53:42;101939.63;;;11.91;nan
14343;BME280;7255;53.596;9.960;2023-05-13T00:56:08;101935.06;;;11.91;nan
14343;BME280;7255;53.596;9.960;2023-05-13T00:58:34;101942.88;;;11.80;nan
14343;BME280;7255;53.596;9.960;2023-05-13T01:01:08;101943.69;;;11.80;nan
14343;BME280;7255;53.596;9.960;2023-05-13T01:03:43;101942.47;;;11.89;nan
14343;BME280;7255;53.596;9.960;2023-05-13T01:06:13;101938.75;;;11.84;nan
14343;BME280;7255;53.596;9.960;2023-05-13T01:08:46;101944.50;;;11.74;nan
14343;BME280;7255;53.596;9.960;2023-05-13T01:11:19;101947.00;;;11.75;nan
14343;BME280;7255;53.596;9.960;2023-05-13T01:13:48;101944.50;;;11.74;nan
14343;BME280;7255;53.596;9.960;2023-05-13T01:16:21;101941.16;;;11.59;nan
14343;BME280;7255;53.596;9.960;2023-05-13T01:18:58;101930.34;;;11.45;nan
14343;BME280;7255;53.596;9.960;2023-05-13T01:21:28;101941.34;;;11.50;nan
14343;BME280;7255;53.596;9.960;2023-05-13T01:23:54;101938.22;;;11.53;nan
14343;BME280;7255;53.596;9.960;2023-05-13T01:26:21;101937.38;;;11.46;nan
14343;BME280;7255;53.596;9.960;2023-05-13T01:28:48;101941.97;;;11.52;nan
14343;BME280;7255;53.596;9.960;2023-05-13T01:31:15;101933.66;;;11.47;nan
14343;BME280;7255;53.596;9.960;2023-05-13T01:33:42;101942.34;;;11.49;nan
14343;BME280;7255;53.596;9.960;2023-05-13T01:36:09;101944.75;;;11.31;nan
14343;BME280;7255;53.596;9.960;2023-05-13T01:38:38;101941.87;;;11.39;nan
14343;BME280;7255;53.596;9.960;2023-05-13T01:41:05;101941.09;;;11.45;nan
14343;BME280;7255;53.596;9.960;2023-05-13T01:43:31;101948.16;;;11.53;nan
14343;BME280;7255;53.596;9.960;2023-05-13T01:45:57;101943.56;;;11.40;nan
14343;BME280;7255;53.596;9.960;2023-05-13T01:48:24;101956.00;;;11.41;nan
14343;BME280;7255;53.596;9.960;2023-05-13T01:50:51;101947.31;;;11.46;nan
14343;BME280;7255;53.596;9.960;2023-05-13T01:53:17;101949.75;;;11.34;nan
14343;BME280;7255;53.596;9.960;2023-05-13T01:55:45;101946.81;;;11.29;nan
14343;BME280;7255;53.596;9.960;2023-05-13T01:58:12;101953.88;;;11.36;nan
14343;BME280;7255;53.596;9.960;2023-05-13T02:00:38;101947.66;;;11.29;nan
14343;BME280;7255;53.596;9.960;2023-05-13T02:03:05;101942.63;;;11.20;nan
14343;BME280;7255;53.596;9.960;2023-05-13T02:05:31;101941.22;;;11.24;nan
14343;BME280;7255;53.596;9.960;2023-05-13T02:07:57;101945.09;;;11.14;nan
14343;BME280;7255;53.596;9.960;2023-05-13T02:10:24;101949.66;;;11.14;nan
14343;BME280;7255;53.596;9.960;2023-05-13T02:12:51;101945.47;;;11.11;nan
14343;BME280;7255;53.596;9.960;2023-05-13T02:15:18;101931.78;;;11.06;nan
14343;BME280;7255;53.596;9.960;2023-05-13T02:17:44;101933.84;;;11.04;nan
14343;BME280;7255;53.596;9.960;2023-05-13T02:20:11;101934.25;;;11.01;nan
14343;BME280;7255;53.596;9.960;2023-05-13T02:22:38;101942.91;;;10.96;nan
14343;BME280;7255;53.596;9.960;2023-05-13T02:25:05;101938.34;;;10.97;nan
14343;BME280;7255;53.596;9.960;2023-05-13T02:27:31;101940.84;;;10.98;nan
14343;BME280;7255;53.596;9.960;2023-05-13T02:29:59;101940.03;;;10.98;nan
14343;BME280;7255;53.596;9.960;2023-05-13T02:32:25;101942.47;;;10.93;nan
14343;BME280;7255;53.596;9.960;2023-05-13T02:34:51;101940.84;;;10.92;nan
14343;BME280;7255;53.596;9.960;2023-05-13T02:37:18;101946.59;;;10.89;nan
14343;BME280;7255;53.596;9.960;2023-05-13T02:39:44;101944.09;;;10.87;nan
14343;BME280;7255;53.596;9.960;2023-05-13T02:42:10;101946.16;;;10.85;nan
14343;BME280;7255;53.596;9.960;2023-05-13T02:44:36;101944.91;;;10.88;nan
14343;BME280;7255;53.596;9.960;2023-05-13T02:47:05;101948.41;;;10.82;nan
14343;BME280;7255;53.596;9.960;2023-05-13T02:49:32;101941.66;;;10.92;nan
14343;BME280;7255;53.596;9.960;2023-05-13T02:51:58;101946.22;;;10.92;nan
14343;BME280;7255;53.596;9.960;2023-05-13T02:54:24;101946.91;;;10.72;nan
14343;BME280;7255;53.596;9.960;2023-05-13T02:56:51;101944.78;;;10.68;nan
14343;BME280;7255;53.596;9.960;2023-05-13T02:59:17;101938.59;;;10.67;nan
14343;BME280;7255;53.596;9.960;2023-05-13T03:01:43;101944.03;;;10.74;nan
14343;BME280;7255;53.596;9.960;2023-05-13T03:04:11;101941.13;;;10.75;nan
14343;BME280;7255;53.596;9.960;2023-05-13T03:06:37;101945.47;;;10.48;nan
14343;BME280;7255;53.596;9.960;2023-05-13T03:09:04;101934.28;;;10.45;nan
14343;BME280;7255;53.596;9.960;2023-05-13T03:11:30;101942.47;;;10.36;nan
14343;BME280;7255;53.596;9.960;2023-05-13T03:13:56;101949.91;;;10.34;nan
14343;BME280;7255;53.596;9.960;2023-05-13T03:16:23;101940.84;;;10.42;nan
14343;BME280;7255;53.596;9.960;2023-05-13T03:18:49;101940.00;;;10.35;nan
14343;BME280;7255;53.596;9.960;2023-05-13T03:21:16;101940.41;;;10.38;nan
14343;BME280;7255;53.596;9.960;2023-05-13T03:23:43;101947.47;;;10.39;nan
14343;BME280;7255;53.596;9.960;2023-05-13T03:26:09;101949.53;;;10.37;nan
14343;BME280;7255;53.596;9.960;2023-05-13T03:28:35;101955.25;;;10.34;nan
14343;BME280;7255;53.596;9.960;2023-05-13T03:31:02;101950.31;;;10.31;nan
14343;BME280;7255;53.596;9.960;2023-05-13T03:33:28;101944.53;;;10.34;nan
14343;BME280;7255;53.596;9.960;2023-05-13T03:35:55;101947.69;;;10.23;nan
14343;BME280;7255;53.596;9.960;2023-05-13T03:38:22;101937.75;;;10.17;nan
14343;BME280;7255;53.596;9.960;2023-05-13T03:40:48;101951.44;;;10.22;nan
14343;BME280;7255;53.596;9.960;2023-05-13T03:43:15;101942.31;;;10.23;nan
14343;BME280;7255;53.596;9.960;2023-05-13T03:45:41;101947.69;;;10.23;nan
14343;BME280;7255;53.596;9.960;2023-05-13T03:48:11;101948.59;;;10.30;nan
14343;BME280;7255;53.596;9.960;2023-05-13T03:50:38;101948.28;;;10.40;nan
14343;BME280;7255;53.596;9.960;2023-05-13T03:53:04;101949.59;;;10.44;nan
14343;BME280;7255;53.596;9.960;2023-05-13T03:55:32;101948.41;;;10.53;nan
14343;BME280;7255;53.596;9.960;2023-05-13T03:57:58;101945.91;;;10.52;nan
14343;BME280;7255;53.596;9.960;2023-05-13T04:00:25;101948.41;;;10.53;nan
14343;BME280;7255;53.596;9.960;2023-05-13T04:02:51;101953.06;;;10.66;nan
14343;BME280;7255;53.596;9.960;2023-05-13T04:05:17;101946.81;;;10.59;nan
14343;BME280;7255;53.596;9.960;2023-05-13T04:07:44;101948.06;;;10.63;nan
14343;BME280;7255;53.596;9.960;2023-05-13T04:10:10;101957.25;;;10.75;nan
14343;BME280;7255;53.596;9.960;2023-05-13T04:12:38;101952.72;;;10.76;nan
14343;BME280;7255;53.596;9.960;2023-05-13T04:15:05;101965.22;;;10.90;nan
14343;BME280;7255;53.596;9.960;2023-05-13T04:17:32;101959.03;;;10.90;nan
14343;BME280;7255;53.596;9.960;2023-05-13T04:19:58;101962.78;;;10.95;nan
14343;BME280;7255;53.596;9.960;2023-05-13T04:22:24;101959.78;;;10.84;nan
14343;BME280;7255;53.596;9.960;2023-05-13T04:24:50;101963.91;;;10.79;nan
14343;BME280;7255;53.596;9.960;2023-05-13T04:27:20;101961.84;;;10.82;nan
14343;BME280;7255;53.596;9.960;2023-05-13T04:29:48;101966.41;;;10.81;nan
14343;BME280;7255;53.596;9.960;2023-05-13T04:32:15;101977.19;;;10.88;nan
14343;BME280;7255;53.596;9.960;2023-05-13T04:34:45;101966.13;;;11.04;nan
14343;BME280;7255;53.596;9.960;2023-05-13T04:37:11;101967.16;;;11.38;nan
14343;BME280;7255;53.596;9.960;2023-05-13T04:39:38;101975.91;;;11.53;nan
14343;BME280;7255;53.596;9.960;2023-05-13T04:42:04;101976.00;;;11.80;nan
14343;BME280;7255;53.596;9.960;2023-05-13T04:44:31;101976.88;;;11.87;nan
14343;BME280;7255;53.596;9.960;2023-05-13T04:47:00;101988.91;;;11.91;nan
14343;BME280;7255;53.596;9.960;2023-05-13T04:49:26;101991.09;;;12.29;nan
14343;BME280;7255;53.596;9.960;2023-05-13T04:51:53;101985.69;;;12.43;nan
14343;BME280;7255;53.596;9.960;2023-05-13T04:54:19;101990.69;;;12.59;nan
14343;BME280;7255;53.596;9.960;2023-05-13T04:56:46;101996.91;;;12.60;nan
14343;BME280;7255;53.596;9.960;2023-05-13T04:59:12;101998.56;;;12.74;nan
14343;BME280;7255;53.596;9.960;2023-05-13T05:01:38;102004.34;;;12.71;nan
14343;BME280;7255;53.596;9.960;2023-05-13T05:04:06;102013.09;;;12.66;nan
14343;BME280;7255;53.596;9.960;2023-05-13T05:06:32;102011.00;;;12.48;nan
14343;BME280;7255;53.596;9.960;2023-05-13T05:08:58;102003.50;;;12.17;nan
14343;BME280;7255;53.596;9.960;2023-05-13T05:11:25;102005.16;;;12.18;nan
14343;BME280;7255;53.596;9.960;2023-05-13T05:13:51;102000.63;;;12.25;nan
14343;BME280;7255;53.596;9.960;2023-05-13T05:16:17;101995.44;;;12.24;nan
14343;BME280;7255;53.596;9.960;2023-05-13T05:18:44;102001.00;;;12.16;nan
14343;BME280;7255;53.596;9.960;2023-05-13T05:21:12;101996.84;;;12.20;nan
14343;BME280;7255;53.596;9.960;2023-05-13T05:23:38;102000.19;;;12.28;nan
14343;BME280;7255;53.596;9.960;2023-05-13T05:26:04;102008.88;;;12.30;nan
14343;BME280;7255;53.596;9.960;2023-05-13T05:28:30;102015.97;;;12.45;nan
14343;BME280;7255;53.596;9.960;2023-05-13T05:30:57;102007.25;;;12.43;nan
14343;BME280;7255;53.596;9.960;2023-05-13T05:33:23;102015.16;;;12.58;nan
14343;BME280;7255;53.596;9.960;2023-05-13T05:35:49;102022.59;;;12.49;nan
14343;BME280;7255;53.596;9.960;2023-05-13T05:38:17;102018.47;;;12.66;nan
14343;BME280;7255;53.596;9.960;2023-05-13T05:40:44;102008.50;;;12.54;nan
14343;BME280;7255;53.596;9.960;2023-05-13T05:43:10;102013.50;;;12.77;nan
14343;BME280;7255;53.596;9.960;2023-05-13T05:45:37;102013.91;;;12.94;nan
14343;BME280;7255;53.596;9.960;2023-05-13T05:48:04;102018.03;;;12.96;nan
14343;BME280;7255;53.596;9.960;2023-05-13T05:50:31;102013.88;;;13.00;nan
14343;BME280;7255;53.596;9.960;2023-05-13T05:52:58;102024.22;;;13.23;nan
14343;BME280;7255;53.596;9.960;2023-05-13T05:55:26;102016.13;;;13.17;nan
14343;BME280;7255;53.596;9.960;2023-05-13T05:57:52;102023.81;;;13.33;nan
14343;BME280;7255;53.596;9.960;2023-05-13T06:00:20;102022.53;;;13.42;nan
14343;BME280;7255;53.596;9.960;2023-05-13T06:02:46;102029.16;;;13.60;nan
14343;BME280;7255;53.596;9.960;2023-05-13T06:05:12;102024.97;;;13.64;nan
14343;BME280;7255;53.596;9.960;2023-05-13T06:07:39;102021.19;;;13.78;nan
14343;BME280;7255;53.596;9.960;2023-05-13T06:10:06;102030.28;;;13.84;nan
14343;BME280;7255;53.596;9.960;2023-05-13T06:12:34;102026.47;;;14.05;nan
14343;BME280;7255;53.596;9.960;2023-05-13T06:15:00;102031.78;;;14.18;nan
14343;BME280;7255;53.596;9.960;2023-05-13T06:17:26;102036.78;;;14.21;nan
14343;BME280;7255;53.596;9.960;2023-05-13T06:19:53;102035.78;;;14.41;nan
14343;BME280;7255;53.596;9.960;2023-05-13T06:22:20;102035.72;;;14.54;nan
14343;BME280;7255;53.596;9.960;2023-05-13T06:24:46;102033.59;;;14.63;nan
14343;BME280;7255;53.596;9.960;2023-05-13T06:27:12;102045.91;;;14.84;nan
14343;BME280;7255;53.596;9.960;2023-05-13T06:29:40;102041.28;;;14.91;nan
14343;BME280;7255;53.596;9.960;2023-05-13T06:32:06;102039.47;;;15.04;nan
14343;BME280;7255;53.596;9.960;2023-05-13T06:34:33;102045.59;;;15.17;nan
14343;BME280;7255;53.596;9.960;2023-05-13T06:36:59;102044.47;;;15.07;nan
14343;BME280;7255;53.596;9.960;2023-05-13T06:39:26;102045.59;;;15.17;nan
14343;BME280;7255;53.596;9.960;2023-05-13T06:41:53;102046.91;;;15.15;nan
14343;BME280;7255;53.596;9.960;2023-05-13T06:44:19;102033.66;;;15.44;nan
14343;BME280;7255;53.596;9.960;2023-05-13T06:46:47;102042.63;;;15.44;nan
14343;BME280;7255;53.596;9.960;2023-05-13T06:49:13;102039.03;;;15.50;nan
14343;BME280;7255;53.596;9.960;2023-05-13T06:51:39;102044.97;;;15.40;nan
14343;BME280;7255;53.596;9.960;2023-05-13T06:54:06;102037.13;;;15.69;nan
14343;BME280;7255;53.596;9.960;2023-05-13T06:56:33;102054.59;;;15.73;nan
14343;BME280;7255;53.596;9.960;2023-05-13T06:58:59;102051.72;;;15.68;nan
14343;BME280;7255;53.596;9.960;2023-05-13T07:01:26;102054.22;;;15.70;nan
14343;BME280;7255;53.596;9.960;2023-05-13T07:03:53;102044.81;;;15.91;nan
14343;BME280;7255;53.596;9.960;2023-05-13T07:06:20;102062.00;;;16.15;nan
14343;BME280;7255;53.596;9.960;2023-05-13T07:08:46;102054.19;;;16.07;nan
14343;BME280;7255;53.596;9.960;2023-05-13T07:11:13;102048.50;;;16.27;nan
14343;BME280;7255;53.596;9.960;2023-05-13T07:13:39;102049.59;;;16.38;nan
14343;BME280;7255;53.596;9.960;2023-05-13T07:16:06;102054.44;;;16.47;nan
14343;BME280;7255;53.596;9.960;2023-05-13T07:18:32;102057.19;;;16.59;nan
14343;BME280;7255;53.596;9.960;2023-05-13T07:21:00;102056.63;;;16.69;nan
14343;BME280;7255;53.596;9.960;2023-05-13T07:23:26;102052.19;;;16.86;nan
14343;BME280;7255;53.596;9.960;2023-05-13T07:25:52;102051.72;;;17.13;nan
14343;BME280;7255;53.596;9.960;2023-05-13T07:28:19;102046.87;;;17.03;nan
14343;BME280;7255;53.596;9.960;2023-05-13T07:30:46;102051.25;;;17.16;nan
14343;BME280;7255;53.596;9.960;2023-05-13T07:33:12;102058.69;;;17.21;nan
14343;BME280;7255;53.596;9.960;2023-05-13T07:35:38;102054.78;;;17.28;nan
14343;BME280;7255;53.596;9.960;2023-05-13T07:38:08;102047.09;;;17.37;nan
14343;BME280;7255;53.596;9.960;2023-05-13T07:40:35;102055.03;;;17.39;nan
14343;BME280;7255;53.596;9.960;2023-05-13T07:43:01;102054.53;;;17.42;nan
14343;BME280;7255;53.596;9.960;2023-05-13T07:45:27;102040.25;;;17.46;nan
14343;BME280;7255;53.596;9.960;2023-05-13T07:47:53;102044.34;;;17.49;nan
14343;BME280;7255;53.596;9.960;2023-05-13T07:50:20;102052.62;;;17.54;nan
14343;BME280;7255;53.596;9.960;2023-05-13T07:52:46;102047.06;;;17.61;nan
14343;BME280;7255;53.596;9.960;2023-05-13T07:55:16;102047.25;;;17.71;nan
14343;BME280;7255;53.596;9.960;2023-05-13T07:57:42;102048.91;;;17.72;nan
14343;BME280;7255;53.596;9.960;2023-05-13T08:00:09;102053.28;;;17.85;nan
14343;BME280;7255;53.596;9.960;2023-05-13T08:02:36;102057.41;;;17.87;nan
14343;BME280;7255;53.596;9.960;2023-05-13T08:05:03;102049.88;;;17.89;nan
14343;BME280;7255;53.596;9.960;2023-05-13T08:07:30;102048.53;;;17.92;nan
14343;BME280;7255;53.596;9.960;2023-05-13T08:09:56;102059.00;;;18.12;nan
14343;BME280;7255;53.596;9.960;2023-05-13T08:12:23;102055.03;;;18.20;nan
14343;BME280;7255;53.596;9.960;2023-05-13T08:14:50;102056.06;;;18.31;nan
14343;BME280;7255;53.596;9.960;2023-05-13T08:17:16;102051.78;;;18.35;nan
14343;BME280;7255;53.596;9.960;2023-05-13T08:19:43;102053.13;;;18.49;nan
14343;BME280;7255;53.596;9.960;2023-05-13T08:22:10;102055.59;;;18.51;nan
14343;BME280;7255;53.596;9.960;2023-05-13T08:24:36;102053.63;;;18.63;nan
14343;BME280;7255;53.596;9.960;2023-05-13T08:27:04;102049.50;;;18.77;nan
14343;BME280;7255;53.596;9.960;2023-05-13T08:29:32;102042.28;;;18.83;nan
14343;BME280;7255;53.596;9.960;2023-05-13T08:31:58;102062.59;;;18.92;nan
14343;BME280;7255;53.596;9.960;2023-05-13T08:34:24;102046.22;;;19.09;nan
14343;BME280;7255;53.596;9.960;2023-05-13T08:36:51;102050.81;;;19.26;nan
14343;BME280;7255;53.596;9.960;2023-05-13T08:39:17;102052.28;;;19.33;nan
14343;BME280;7255;53.596;9.960;2023-05-13T08:41:43;102050.13;;;19.35;nan
14343;BME280;7255;53.596;9.960;2023-05-13T08:44:11;102047.47;;;19.40;nan
14343;BME280;7255;53.596;9.960;2023-05-13T08:46:40;102052.03;;;19.57;nan
14343;BME280;7255;53.596;9.960;2023-05-13T08:49:09;102047.72;;;19.61;nan
14343;BME280;7255;53.596;9.960;2023-05-13T08:51:36;102050.75;;;19.65;nan
14343;BME280;7255;53.596;9.960;2023-05-13T08:54:05;102043.72;;;19.69;nan
14343;BME280;7255;53.596;9.960;2023-05-13T08:56:34;102055.38;;;19.81;nan
14343;BME280;7255;53.596;9.960;2023-05-13T08:59:00;102047.19;;;19.81;nan
14343;BME280;7255;53.596;9.960;2023-05-13T09:01:27;102040.50;;;19.94;nan
14343;BME280;7255;53.596;9.960;2023-05-13T09:03:57;102054.19;;;19.99;nan
14343;BME280;7255;53.596;9.960;2023-05-13T09:06:26;102042.47;;;19.98;nan
14343;BME280;7255;53.596;9.960;2023-05-13T09:08:53;102048.66;;;20.16;nan
14343;BME280;7255;53.596;9.960;2023-05-13T09:11:19;102048.97;;;20.19;nan
14343;BME280;7255;53.596;9.960;2023-05-13T09:13:55;102050.37;;;20.27;nan
14343;BME280;7255;53.596;9.960;2023-05-13T09:16:21;102058.62;;;20.32;nan
14343;BME280;7255;53.596;9.960;2023-05-13T09:18:48;102054.31;;;20.36;nan
14343;BME280;7255;53.596;9.960;2023-05-13T09:21:22;102062.09;;;20.55;nan
14343;BME280;7255;53.596;9.960;2023-05-13T09:23:49;102055.31;;;20.57;nan
14343;BME280;7255;53.596;9.960;2023-05-13T09:26:27;102057.37;;;20.72;nan
14343;BME280;7255;53.596;9.960;2023-05-13T09:29:13;102051.41;;;20.75;nan
14343;BME280;7255;53.596;9.960;2023-05-13T09:31:39;102056.94;;;20.86;nan
14343;BME280;7255;53.596;9.960;2023-05-13T09:34:06;102055.66;;;20.99;nan
14343;BME280;7255;53.596;9.960;2023-05-13T09:36:34;102056.81;;;21.03;nan
14343;BME280;7255;53.596;9.960;2023-05-13T09:39:01;102061.75;;;21.11;nan
14343;BME280;7255;53.596;9.960;2023-05-13T09:41:29;102047.19;;;21.00;nan
14343;BME280;7255;53.596;9.960;2023-05-13T09:43:56;102044.50;;;21.05;nan
14343;BME280;7255;53.596;9.960;2023-05-13T09:46:23;102052.50;;;21.17;nan
14343;BME280;7255;53.596;9.960;2023-05-13T09:48:50;102055.22;;;21.12;nan
14343;BME280;7255;53.596;9.960;2023-05-13T09:51:24;102054.31;;;21.01;nan
14343;BME280;7255;53.596;9.960;2023-05-13T09:53:52;102058.84;;;21.28;nan
14343;BME280;7255;53.596;9.960;2023-05-13T09:56:19;102042.00;;;21.41;nan
14343;BME280;7255;53.596;9.960;2023-05-13T09:58:50;102058.50;;;21.62;nan
14343;BME280;7255;53.596;9.960;2023-05-13T10:01:17;102054.94;;;21.56;nan
14343;BME280;7255;53.596;9.960;2023-05-13T10:03:44;102057.03;;;21.44;nan
14343;BME280;7255;53.596;9.960;2023-05-13T10:06:11;102059.19;;;21.42;nan
14343;BME280;7255;53.596;9.960;2023-05-13T10:08:38;102051.06;;;21.47;nan
14343;BME280;7255;53.596;9.960;2023-05-13T10:11:06;102059.56;;;21.56;nan
14343;BME280;7255;53.596;9.960;2023-05-13T10:13:34;102045.97;;;21.71;nan
14343;BME280;7255;53.596;9.960;2023-05-13T10:16:01;102047.94;;;21.86;nan
14343;BME280;7255;53.596;9.960;2023-05-13T10:18:29;102040.59;;;22.02;nan
14343;BME280;7255;53.596;9.960;2023-05-13T10:20:56;102043.28;;;21.86;nan
14343;BME280;7255;53.596;9.960;2023-05-13T10:23:22;102044.38;;;21.96;nan
14343;BME280;7255;53.596;9.960;2023-05-13T10:25:49;102033.97;;;21.87;nan
14343;BME280;7255;53.596;9.960;2023-05-13T10:28:17;102032.09;;;21.93;nan
14343;BME280;7255;53.596;9.960;2023-05-13T10:30:44;102035.03;;;21.71;nan
14343;BME280;7255;53.596;9.960;2023-05-13T10:33:11;102027.91;;;21.75;nan
14343;BME280;7255;53.596;9.960;2023-05-13T10:35:39;102026.03;;;21.86;nan
14343;BME280;7255;53.596;9.960;2023-05-13T10:38:09;102033.22;;;22.07;nan
14343;BME280;7255;53.596;9.960;2023-05-13T10:40:54;102032.97;;;22.24;nan
14343;BME280;7255;53.596;9.960;2023-05-13T10:43:28;102031.06;;;22.30;nan
14343;BME280;7255;53.596;9.960;2023-05-13T10:45:56;102025.81;;;22.23;nan
14343;BME280;7255;53.596;9.960;2023-05-13T10:48:23;102026.16;;;22.47;nan
14343;BME280;7255;53.596;9.960;2023-05-13T10:50:50;102029.91;;;22.16;nan
14343;BME280;7255;53.596;9.960;2023-05-13T10:53:22;102023.34;;;22.11;nan
14343;BME280;7255;53.596;9.960;2023-05-13T10:55:52;102027.25;;;22.52;nan
14343;BME280;7255;53.596;9.960;2023-05-13T10:58:20;102026.97;;;22.79;nan
14343;BME280;7255;53.596;9.960;2023-05-13T11:00:50;102028.28;;;23.02;nan
14343;BME280;7255;53.596;9.960;2023-05-13T11:03:27;102023.53;;;23.38;nan
14343;BME280;7255;53.596;9.960;2023-05-13T11:06:13;102022.00;;;23.72;nan
14343;BME280;7255;53.596;9.960;2023-05-13T11:08:41;102025.41;;;24.08;nan
14343;BME280;7255;53.596;9.960;2023-05-13T11:11:21;102019.13;;;24.42;nan
14343;BME280;7255;53.596;9.960;2023-05-13T11:13:48;102026.00;;;24.74;nan
14343;BME280;7255;53.596;9.960;2023-05-13T11:16:16;102020.09;;;25.15;nan
14343;BME280;7255;53.596;9.960;2023-05-13T11:18:43;102025.12;;;25.56;nan
14343;BME280;7255;53.596;9.960;2023-05-13T11:21:09;102013.37;;;25.02;nan
14343;BME280;7255;53.596;9.960;2023-05-13T11:23:50;102017.72;;;25.03;nan
14343;BME280;7255;53.596;9.960;2023-05-13T11:26:16;102020.81;;;25.50;nan
14343;BME280;7255;53.596;9.960;2023-05-13T11:28:53;102005.84;;;25.75;nan
14343;BME280;7255;53.596;9.960;2023-05-13T11:31:21;102022.87;;;25.58;nan
14343;BME280;7255;53.596;9.960;2023-05-13T11:34:08;102023.22;;;25.51;nan
14343;BME280;7255;53.596;9.960;2023-05-13T11:36:36;102010.97;;;25.44;nan
14343;BME280;7255;53.596;9.960;2023-05-13T11:39:07;102011.97;;;25.72;nan
14343;BME280;7255;53.596;9.960;2023-05-13T11:41:35;102011.75;;;26.06;nan
14343;BME280;7255;53.596;9.960;2023-05-13T11:44:03;102002.97;;;25.85;nan
14343;BME280;7255;53.596;9.960;2023-05-13T11:46:32;102016.97;;;25.89;nan
14343;BME280;7255;53.596;9.960;2023-05-13T11:48:58;102007.69;;;26.04;nan
14343;BME280;7255;53.596;9.960;2023-05-13T11:51:24;102000.38;;;26.13;nan
14343;BME280;7255;53.596;9.960;2023-05-13T11:53:58;102002.50;;;26.35;nan
14343;BME280;7255;53.596;9.960;2023-05-13T11:56:25;101982.66;;;25.81;nan
14343;BME280;7255;53.596;9.960;2023-05-13T11:58:52;102003.16;;;25.51;nan
14343;BME280;7255;53.596;9.960;2023-05-13T12:01:19;101998.53;;;25.22;nan
14343;BME280;7255;53.596;9.960;2023-05-13T12:03:47;102004.50;;;24.81;nan
14343;BME280;7255;53.596;9.960;2023-05-13T12:06:14;101998.78;;;25.02;nan
14343;BME280;7255;53.596;9.960;2023-05-13T12:08:43;102004.97;;;24.88;nan
14343;BME280;7255;53.596;9.960;2023-05-13T12:11:09;102006.56;;;24.65;nan
14343;BME280;7255;53.596;9.960;2023-05-13T12:13:38;102008.63;;;24.49;nan
14343;BME280;7255;53.596;9.960;2023-05-13T12:16:04;102003.09;;;24.54;nan
14343;BME280;7255;53.596;9.960;2023-05-13T12:18:31;101997.06;;;24.18;nan
14343;BME280;7255;53.596;9.960;2023-05-13T12:21:12;101994.81;;;23.86;nan
14343;BME280;7255;53.596;9.960;2023-05-13T12:23:38;102004.72;;;23.81;nan
14343;BME280;7255;53.596;9.960;2023-05-13T12:26:06;102004.09;;;23.30;nan
14343;BME280;7255;53.596;9.960;2023-05-13T12:28:32;101994.09;;;22.58;nan
14343;BME280;7255;53.596;9.960;2023-05-13T12:31:01;101989.69;;;22.21;nan
14343;BME280;7255;53.596;9.960;2023-05-13T12:33:28;101991.66;;;22.57;nan
14343;BME280;7255;53.596;9.960;2023-05-13T12:36:14;101999.25;;;23.06;nan
14343;BME280;7255;53.596;9.960;2023-05-13T12:38:52;101997.00;;;23.29;nan
14343;BME280;7255;53.596;9.960;2023-05-13T12:41:20;102002.16;;;23.35;nan
14343;BME280;7255;53.596;9.960;2023-05-13T12:43:46;102003.19;;;23.50;nan
14343;BME280;7255;53.596;9.960;2023-05-13T12:46:13;102002.69;;;23.42;nan
14343;BME280;7255;53.596;9.960;2023-05-13T12:48:39;102000.81;;;23.28;nan
14343;BME280;7255;53.596;9.960;2023-05-13T12:51:05;101997.53;;;23.25;nan
14343;BME280;7255;53.596;9.960;2023-05-13T12:53:33;101990.03;;;23.52;nan
14343;BME280;7255;53.596;9.960;2023-05-13T12:55:59;101995.41;;;23.72;nan
14343;BME280;7255;53.596;9.960;2023-05-13T12:58:26;101994.59;;;23.72;nan
14343;BME280;7255;53.596;9.960;2023-05-13T13:00:52;101997.69;;;24.05;nan
14343;BME280;7255;53.596;9.960;2023-05-13T13:03:18;101987.91;;;24.33;nan
14343;BME280;7255;53.596;9.960;2023-05-13T13:05:45;101996.06;;;24.72;nan
14343;BME280;7255;53.596;9.960;2023-05-13T13:08:12;102000.91;;;25.34;nan
14343;BME280;7255;53.596;9.960;2023-05-13T13:10:40;102000.56;;;25.41;nan
14343;BME280;7255;53.596;9.960;2023-05-13T13:13:06;101993.09;;;26.03;nan
14343;BME280;7255;53.596;9.960;2023-05-13T13:15:32;101990.38;;;26.17;nan
14343;BME280;7255;53.596;9.960;2023-05-13T13:17:59;101989.72;;;26.06;nan
14343;BME280;7255;53.596;9.960;2023-05-13T13:20:25;101988.09;;;26.05;nan
14343;BME280;7255;53.596;9.960;2023-05-13T13:22:51;102000.00;;;26.20;nan
14343;BME280;7255;53.596;9.960;2023-05-13T13:25:18;101984.16;;;26.44;nan